Terminal Aerodrome Forecast
Issued by NWS

Home | Current Version | Previous Version | Graphics & Text | Print | Product List | Glossary On
Versions: 1 2 3 4 5 6 7 8 9 10 11 12 13 14 15 16 17
329
FTUS45 KGGW 261122
TAFSDY
TAF
KSDY 261122Z 2612/2712 VRB05KT P6SM VCFG BKN100
     FM261600 29007KT P6SM VCSH BKN060
     FM261800 29008KT P6SM VCTS BKN045CB
      TEMPO 2619/2622 6SM -SHRA OVC025
     FM262200 30008KT P6SM -SHRA BKN045
     FM270000 33007KT P6SM BKN060
      AMD LTD TO CLD VIS AND WIND=

USA.gov is the U.S. government's official web portal to all federal, state and local government web resources and services.